Advance Mills, Virginia
Current Conditions -  °F | °C
As of 1:53 PM on Friday 24 Oct 2014 (Local Time) from KCHO Reporting Station
Clear Clear  
Wind Chill: 67°   Ceiling: Unl
Heat Index: 67°   Visibility: 10mi
Dew Point: 37°   Wind: 7mph
Humidity: 33%   Direction: 300°WNW
Pressure: 29.96"   Gusts: NA
Location:  38.2469°N, 78.3926°W
Report Text: KCHO 241753Z 30006KT 10SM CLR 19/03 A2996 RMK AO2 SLP144 T01940028 10194 20100 58017
Loading
Personal Weather Stations






























Interactive Weather Map New forecast layout! Learn more

10-Day Weather Forecast

Advertisements
Track Severe Weather on mobile